createdAt,value
2022-12-28T00:01:32.732Z,7.36
2022-12-28T00:04:02.735Z,7.35
2022-12-28T00:06:30.193Z,7.33
2022-12-28T00:08:57.750Z,7.32
2022-12-28T00:11:28.021Z,7.29
2022-12-28T00:14:01.801Z,7.31
2022-12-28T00:16:38.059Z,7.23
2022-12-28T00:19:10.077Z,7.31
2022-12-28T00:21:37.200Z,7.31
2022-12-28T00:24:04.920Z,7.29
2022-12-28T00:26:34.747Z,7.27
2022-12-28T00:29:05.348Z,7.26
2022-12-28T00:31:34.486Z,7.26
2022-12-28T00:34:02.999Z,7.23
2022-12-28T00:37:10.000Z,7.19
2022-12-28T00:39:20.192Z,7.19
2022-12-28T00:41:47.550Z,7.19
2022-12-28T00:44:14.336Z,7.16
2022-12-28T00:46:41.481Z,7.14
2022-12-28T00:49:08.269Z,7.12
2022-12-28T00:51:35.185Z,7.03
2022-12-28T00:54:01.958Z,7.00
2022-12-28T00:56:28.754Z,6.99
2022-12-28T00:58:58.731Z,6.95
2022-12-28T01:01:27.952Z,6.93
2022-12-28T01:03:59.696Z,6.85
2022-12-28T01:06:28.422Z,6.86
2022-12-28T01:08:55.796Z,6.85
2022-12-28T01:11:26.709Z,6.83
2022-12-28T01:13:55.996Z,6.83
2022-12-28T01:16:27.061Z,6.79
2022-12-28T01:18:57.369Z,6.80
2022-12-28T01:21:27.320Z,6.81
2022-12-28T01:23:58.486Z,6.77
2022-12-28T01:26:26.172Z,6.77
2022-12-28T01:28:53.068Z,6.80
2022-12-28T01:31:21.832Z,6.82
2022-12-28T01:33:49.437Z,6.83
2022-12-28T01:36:29.917Z,6.77
2022-12-28T01:39:00.249Z,6.84
2022-12-28T01:41:30.197Z,6.79
2022-12-28T01:43:56.928Z,6.84
2022-12-28T01:46:29.697Z,6.83
2022-12-28T01:49:08.879Z,6.81
2022-12-28T01:52:11.515Z,6.83
2022-12-28T01:55:06.715Z,6.77
2022-12-28T01:57:58.439Z,6.87
2022-12-28T02:00:27.013Z,6.80
2022-12-28T02:03:07.238Z,6.81
2022-12-28T02:05:40.500Z,6.89
2022-12-28T02:08:41.484Z,6.86
2022-12-28T02:11:13.781Z,6.91
2022-12-28T02:13:45.074Z,6.89
2022-12-28T02:16:12.482Z,6.89
2022-12-28T02:18:43.125Z,6.88
2022-12-28T02:21:10.515Z,6.90
2022-12-28T02:24:17.866Z,6.87
2022-12-28T02:26:52.005Z,6.88
2022-12-28T02:29:27.953Z,6.87
2022-12-28T02:32:11.059Z,6.87
2022-12-28T02:35:07.936Z,6.88
2022-12-28T02:37:48.028Z,6.89
2022-12-28T02:40:22.803Z,6.92
2022-12-28T02:42:51.543Z,6.87
2022-12-28T02:45:51.526Z,6.80
2022-12-28T02:48:37.131Z,6.82
2022-12-28T02:51:10.792Z,6.74
2022-12-28T02:53:49.786Z,6.75
2022-12-28T02:56:32.652Z,6.84
2022-12-28T02:59:20.502Z,6.82
2022-12-28T03:02:11.804Z,6.86
2022-12-28T03:04:56.170Z,6.85
2022-12-28T03:07:56.979Z,6.91
2022-12-28T03:10:50.198Z,6.92
2022-12-28T03:13:51.335Z,6.92
2022-12-28T03:16:33.080Z,6.89
2022-12-28T03:19:25.518Z,6.95
2022-12-28T03:22:14.868Z,6.97
2022-12-28T03:25:04.418Z,6.93
2022-12-28T03:27:51.941Z,6.94
2022-12-28T03:30:39.764Z,6.94
2022-12-28T03:33:09.864Z,6.86
2022-12-28T03:36:09.894Z,6.89
2022-12-28T03:38:55.112Z,6.88
2022-12-28T03:41:37.784Z,6.87
2022-12-28T03:44:33.075Z,6.81
2022-12-28T03:47:09.982Z,6.77
2022-12-28T03:49:37.540Z,6.72
2022-12-28T03:52:06.054Z,6.71
2022-12-28T03:54:32.998Z,6.63
2022-12-28T03:56:59.858Z,6.59
2022-12-28T03:59:26.674Z,6.53
2022-12-28T04:01:53.573Z,6.47
2022-12-28T04:04:20.779Z,6.44
2022-12-28T04:06:47.594Z,6.37
2022-12-28T04:09:14.355Z,6.30
2022-12-28T04:11:41.178Z,6.27
2022-12-28T04:14:10.962Z,6.20
2022-12-28T04:16:38.497Z,6.18
2022-12-28T04:19:05.502Z,6.14
2022-12-28T04:21:32.335Z,6.08
2022-12-28T04:23:59.098Z,6.04
2022-12-28T04:26:25.853Z,5.99
2022-12-28T04:28:52.972Z,5.93
2022-12-28T04:31:19.779Z,5.89
2022-12-28T04:33:46.616Z,5.82
2022-12-28T04:36:16.780Z,5.79
2022-12-28T04:38:43.815Z,5.76
2022-12-28T04:41:11.791Z,5.72
2022-12-28T04:43:40.677Z,5.72
2022-12-28T04:46:13.221Z,5.72
2022-12-28T04:48:40.159Z,5.69
2022-12-28T04:51:10.509Z,5.72
2022-12-28T04:53:41.597Z,5.72
2022-12-28T04:56:10.445Z,5.77
2022-12-28T04:58:38.522Z,5.73
2022-12-28T05:01:13.120Z,5.78
2022-12-28T05:03:43.244Z,5.82
2022-12-28T05:06:16.247Z,5.82
2022-12-28T05:08:44.577Z,5.86
2022-12-28T05:11:16.118Z,5.82
2022-12-28T05:13:43.343Z,5.88
2022-12-28T05:16:14.226Z,5.91
2022-12-28T05:18:41.291Z,5.90
2022-12-28T05:21:21.120Z,5.94
2022-12-28T05:23:49.371Z,5.95
2022-12-28T05:26:19.916Z,5.96
2022-12-28T05:28:47.799Z,5.97
2022-12-28T05:31:19.260Z,5.98
2022-12-28T05:33:47.604Z,5.98
2022-12-28T05:36:21.795Z,6.00
2022-12-28T05:38:49.127Z,6.00
2022-12-28T05:41:18.828Z,6.03
2022-12-28T05:43:46.419Z,6.01
2022-12-28T05:46:38.367Z,6.01
2022-12-28T05:49:09.203Z,6.05
2022-12-28T05:51:37.348Z,6.08
2022-12-28T05:54:06.425Z,6.11
2022-12-28T05:56:34.603Z,6.15
2022-12-28T05:59:07.176Z,6.18
2022-12-28T06:01:40.309Z,6.20
2022-12-28T06:04:19.945Z,6.23
2022-12-28T06:06:48.432Z,6.27
2022-12-28T06:09:15.781Z,6.27
2022-12-28T06:11:43.162Z,6.31
2022-12-28T06:14:10.031Z,6.35
2022-12-28T06:16:41.661Z,6.36
2022-12-28T06:19:12.206Z,6.38
2022-12-28T06:21:41.062Z,6.41
2022-12-28T06:24:09.286Z,6.41
2022-12-28T06:26:38.479Z,6.43
2022-12-28T06:29:05.795Z,6.47
2022-12-28T06:31:36.106Z,6.47
2022-12-28T06:34:06.080Z,6.43
2022-12-28T06:36:37.309Z,6.41
2022-12-28T06:39:08.549Z,6.40
2022-12-28T06:41:35.700Z,6.40
2022-12-28T06:44:06.522Z,6.42
2022-12-28T06:46:33.773Z,6.44
2022-12-28T06:49:00.807Z,6.43
2022-12-28T06:51:39.010Z,6.43
2022-12-28T06:54:06.104Z,6.44
2022-12-28T06:56:35.609Z,6.44
2022-12-28T06:59:04.320Z,6.48
2022-12-28T07:01:36.019Z,6.48
2022-12-28T07:04:05.570Z,6.49
2022-12-28T07:06:38.282Z,6.52
2022-12-28T07:09:09.871Z,6.53
2022-12-28T07:11:37.598Z,6.58
2022-12-28T07:14:04.770Z,6.56
2022-12-28T07:18:59.794Z,6.56
2022-12-28T07:21:34.004Z,6.61
2022-12-28T07:24:01.892Z,6.62
2022-12-28T07:26:31.261Z,6.62
2022-12-28T07:29:01.434Z,6.64
2022-12-28T07:31:39.735Z,6.69
2022-12-28T07:34:08.789Z,6.70
2022-12-28T07:36:35.710Z,6.74
2022-12-28T07:39:02.490Z,6.74
2022-12-28T07:41:34.214Z,6.75
2022-12-28T07:44:01.518Z,6.77
2022-12-28T07:46:35.017Z,6.80
2022-12-28T07:49:02.107Z,6.76
2022-12-28T07:51:32.342Z,6.81
2022-12-28T07:54:00.555Z,6.85
2022-12-28T07:56:30.235Z,6.87
2022-12-28T07:59:03.787Z,6.92
2022-12-28T08:01:33.536Z,6.90
2022-12-28T08:04:05.415Z,6.93
2022-12-28T08:06:40.464Z,6.94
2022-12-28T08:09:08.833Z,6.96
2022-12-28T08:11:40.464Z,7.01
2022-12-28T08:14:08.824Z,7.01
2022-12-28T08:16:39.973Z,7.06
2022-12-28T08:19:08.516Z,7.10
2022-12-28T08:21:42.570Z,7.15
2022-12-28T08:24:14.895Z,7.20
2022-12-28T08:26:41.907Z,7.23
2022-12-28T08:29:14.621Z,7.28
2022-12-28T08:31:43.972Z,7.33
2022-12-28T08:34:22.996Z,7.36
2022-12-28T08:36:50.268Z,7.41
2022-12-28T08:39:17.280Z,7.44
2022-12-28T08:41:44.127Z,7.53
2022-12-28T08:44:11.153Z,7.56
2022-12-28T08:46:38.227Z,7.58
2022-12-28T08:49:06.046Z,7.63
2022-12-28T08:51:37.352Z,7.73
2022-12-28T08:54:04.509Z,7.71
2022-12-28T08:56:38.372Z,7.77
2022-12-28T08:59:06.859Z,7.80
2022-12-28T09:01:44.354Z,7.89
2022-12-28T09:04:18.612Z,7.92
2022-12-28T09:06:46.281Z,7.96
2022-12-28T09:09:16.712Z,7.99
2022-12-28T09:11:44.820Z,8.02
2022-12-28T09:14:22.111Z,8.04
2022-12-28T09:16:51.165Z,8.07
2022-12-28T09:19:18.242Z,8.09
2022-12-28T09:21:49.064Z,8.16
2022-12-28T09:24:16.327Z,8.17
2022-12-28T09:26:43.656Z,8.19
2022-12-28T09:29:13.818Z,8.22
2022-12-28T09:31:41.612Z,8.24
2022-12-28T09:37:00.578Z,8.29
2022-12-28T09:39:28.267Z,8.32
2022-12-28T09:42:08.361Z,8.35
2022-12-28T09:45:01.891Z,8.35
2022-12-28T09:47:49.962Z,8.39
2022-12-28T09:50:16.709Z,8.45
2022-12-28T09:53:17.431Z,8.45
2022-12-28T09:55:58.747Z,8.50
2022-12-28T09:58:26.013Z,8.51
2022-12-28T10:00:59.256Z,8.52
2022-12-28T10:03:35.565Z,8.53
2022-12-28T10:06:04.429Z,8.56
2022-12-28T10:08:31.694Z,8.58
2022-12-28T10:11:02.538Z,8.62
2022-12-28T10:13:54.168Z,8.64
2022-12-28T10:16:24.683Z,8.66
2022-12-28T10:18:52.563Z,8.68
2022-12-28T10:21:28.372Z,8.67
2022-12-28T10:26:47.811Z,8.69
2022-12-28T10:29:20.997Z,8.73
2022-12-28T10:32:03.213Z,8.70
2022-12-28T10:34:34.292Z,8.73
2022-12-28T10:37:15.805Z,8.73
2022-12-28T10:40:07.155Z,8.73
2022-12-28T10:42:43.407Z,8.74
2022-12-28T10:45:41.550Z,8.72
2022-12-28T10:48:32.184Z,8.69
2022-12-28T10:51:15.361Z,8.71
2022-12-28T10:53:45.592Z,8.73
2022-12-28T10:56:13.213Z,8.72
2022-12-28T10:58:46.274Z,8.76
2022-12-28T11:01:13.212Z,8.72
2022-12-28T11:04:08.048Z,8.71
2022-12-28T11:06:51.184Z,8.73
2022-12-28T11:09:44.364Z,8.72
2022-12-28T11:12:29.183Z,8.71
2022-12-28T11:14:56.449Z,8.76
2022-12-28T11:17:26.733Z,8.82
2022-12-28T11:19:58.776Z,8.82
2022-12-28T11:22:28.903Z,8.82
2022-12-28T11:24:57.382Z,8.85
2022-12-28T11:27:24.921Z,8.84
2022-12-28T11:29:54.484Z,8.87
2022-12-28T11:32:33.706Z,8.90
2022-12-28T11:35:01.625Z,8.92
2022-12-28T11:37:28.545Z,8.90
2022-12-28T11:39:55.783Z,8.94
2022-12-28T11:42:39.914Z,8.93
2022-12-28T11:45:16.681Z,8.97
2022-12-28T11:47:43.655Z,8.99
2022-12-28T11:50:38.384Z,9.02
2022-12-28T11:53:45.645Z,9.03
2022-12-28T11:56:21.629Z,9.09
2022-12-28T11:59:06.113Z,9.10
2022-12-28T12:01:35.043Z,9.15
2022-12-28T12:04:01.788Z,9.17
2022-12-28T12:06:57.891Z,9.23
2022-12-28T12:09:38.695Z,9.32
2022-12-28T12:12:17.838Z,9.34
2022-12-28T12:15:12.469Z,9.37
2022-12-28T12:18:20.130Z,9.34
2022-12-28T12:21:15.578Z,9.39
2022-12-28T12:24:00.932Z,9.43
2022-12-28T12:26:54.451Z,9.43
2022-12-28T12:29:29.308Z,9.44
2022-12-28T12:32:36.338Z,9.47
2022-12-28T12:35:07.000Z,9.47
2022-12-28T12:37:44.800Z,9.51
2022-12-28T12:40:49.238Z,9.56
2022-12-28T12:43:40.982Z,9.61
2022-12-28T12:46:37.075Z,9.62
2022-12-28T12:49:33.643Z,9.63
2022-12-28T12:52:42.028Z,9.65
2022-12-28T12:55:40.371Z,9.68
2022-12-28T12:58:19.576Z,9.70
2022-12-28T13:00:55.682Z,9.73
2022-12-28T13:03:46.082Z,9.74
2022-12-28T13:06:23.449Z,9.77
2022-12-28T13:09:05.073Z,9.76
2022-12-28T13:11:37.759Z,9.81
2022-12-28T13:14:05.938Z,9.78
2022-12-28T13:16:33.397Z,9.78
2022-12-28T13:19:07.288Z,9.80
2022-12-28T13:21:51.083Z,9.82
2022-12-28T13:24:24.263Z,9.81
2022-12-28T13:26:52.065Z,9.88
2022-12-28T13:29:28.937Z,9.92
2022-12-28T13:31:55.975Z,9.93
2022-12-28T13:34:35.426Z,9.95
2022-12-28T13:37:14.602Z,10.00
2022-12-28T13:39:42.593Z,10.04
2022-12-28T13:42:18.466Z,10.06
2022-12-28T13:45:00.780Z,10.05
2022-12-28T13:47:35.110Z,10.10
2022-12-28T13:50:22.106Z,10.06
2022-12-28T13:53:17.893Z,10.06
2022-12-28T13:56:12.061Z,10.09
2022-12-28T13:58:49.056Z,10.11
2022-12-28T14:01:23.987Z,10.12
2022-12-28T14:04:08.877Z,10.03
2022-12-28T14:06:46.830Z,10.09
2022-12-28T14:09:15.762Z,10.07
2022-12-28T14:11:45.457Z,10.07
2022-12-28T14:14:13.738Z,10.07
2022-12-28T14:16:41.245Z,10.10
2022-12-28T14:19:09.174Z,10.14
2022-12-28T14:21:45.422Z,10.09
2022-12-28T14:24:16.696Z,10.15
2022-12-28T14:26:58.141Z,10.13
2022-12-28T14:29:32.749Z,10.16
2022-12-28T14:32:03.659Z,10.18
2022-12-28T14:34:35.039Z,10.20
2022-12-28T14:37:02.415Z,10.19
2022-12-28T14:39:35.892Z,10.15
2022-12-28T14:42:19.071Z,10.23
2022-12-28T14:44:49.650Z,10.21
2022-12-28T14:47:46.791Z,10.22
2022-12-28T14:50:32.074Z,10.19
2022-12-28T14:53:20.188Z,10.25
2022-12-28T14:56:14.576Z,10.28
2022-12-28T14:58:55.514Z,10.31
2022-12-28T15:01:23.794Z,10.32
2022-12-28T15:03:52.602Z,10.33
2022-12-28T15:06:20.547Z,10.28
2022-12-28T15:08:49.912Z,10.26
2022-12-28T15:11:23.276Z,10.25
2022-12-28T15:13:50.639Z,10.17
2022-12-28T15:16:20.868Z,10.18
2022-12-28T15:18:47.772Z,10.16
2022-12-28T15:21:17.975Z,10.10
2022-12-28T15:23:52.875Z,10.07
2022-12-28T15:26:21.151Z,10.09
2022-12-28T15:28:47.923Z,10.05
2022-12-28T15:31:18.391Z,10.05
2022-12-28T15:33:45.922Z,10.06
2022-12-28T15:36:19.858Z,10.04
2022-12-28T15:38:48.818Z,10.05
2022-12-28T15:41:35.586Z,9.99
2022-12-28T15:44:04.311Z,9.95
2022-12-28T15:46:31.285Z,9.87
2022-12-28T15:49:01.963Z,9.83
2022-12-28T15:51:28.748Z,9.76
2022-12-28T15:53:55.577Z,9.65
2022-12-28T15:56:29.456Z,9.60
2022-12-28T15:58:58.677Z,9.54
2022-12-28T16:01:28.756Z,9.54
2022-12-28T16:03:58.676Z,9.49
2022-12-28T16:06:27.304Z,9.48
2022-12-28T16:08:59.877Z,9.37
2022-12-28T16:11:34.203Z,9.33
2022-12-28T16:14:05.168Z,9.33
2022-12-28T16:16:38.318Z,9.28
2022-12-28T16:19:07.177Z,9.32
2022-12-28T16:21:34.684Z,9.33
2022-12-28T16:24:02.093Z,9.34
2022-12-28T16:26:28.969Z,9.39
2022-12-28T16:28:56.896Z,9.36
2022-12-28T16:31:27.788Z,9.35
2022-12-28T16:34:03.605Z,9.42
2022-12-28T16:36:31.986Z,9.34
2022-12-28T16:38:59.056Z,9.29
2022-12-28T16:41:30.057Z,9.19
2022-12-28T16:44:05.509Z,9.16
2022-12-28T16:46:32.569Z,9.07
2022-12-28T16:49:03.685Z,9.05
2022-12-28T16:51:31.512Z,8.97
2022-12-28T16:53:58.637Z,8.96
2022-12-28T16:56:25.810Z,8.93
2022-12-28T16:58:59.397Z,8.96
2022-12-28T17:01:27.621Z,8.97
2022-12-28T17:04:01.855Z,8.97
2022-12-28T17:06:30.591Z,9.01
2022-12-28T17:08:57.398Z,8.98
2022-12-28T17:11:24.175Z,8.97
2022-12-28T17:13:50.948Z,9.02
2022-12-28T17:16:17.919Z,9.01
2022-12-28T17:18:44.737Z,9.01
2022-12-28T17:21:12.262Z,9.05
2022-12-28T17:23:40.157Z,9.05
2022-12-28T17:26:07.311Z,9.06
2022-12-28T17:28:34.193Z,9.04
2022-12-28T17:31:12.244Z,9.09
2022-12-28T17:33:40.304Z,8.99
2022-12-28T17:36:09.046Z,9.05
2022-12-28T17:38:36.094Z,9.02
2022-12-28T17:41:21.853Z,9.05
2022-12-28T17:43:52.103Z,9.04
2022-12-28T17:46:19.941Z,8.97
2022-12-28T17:48:47.335Z,8.89
2022-12-28T17:51:15.523Z,8.87
2022-12-28T17:53:42.679Z,8.87
2022-12-28T17:56:13.907Z,8.84
2022-12-28T17:58:43.385Z,8.81
2022-12-28T18:01:11.791Z,8.77
2022-12-28T18:03:39.180Z,8.68
2022-12-28T18:06:07.346Z,8.68
2022-12-28T18:08:34.124Z,8.65
2022-12-28T18:11:01.587Z,8.64
2022-12-28T18:13:28.392Z,8.59
2022-12-28T18:15:55.327Z,8.57
2022-12-28T18:18:22.683Z,8.56
2022-12-28T18:20:58.785Z,8.53
2022-12-28T18:23:28.361Z,8.54
2022-12-28T18:26:07.870Z,8.61
2022-12-28T18:28:35.372Z,8.63
2022-12-28T18:31:03.454Z,8.63
2022-12-28T18:33:31.651Z,8.67
2022-12-28T18:35:59.760Z,8.71
2022-12-28T18:38:26.579Z,8.68
2022-12-28T18:40:56.778Z,8.80
2022-12-28T18:43:24.310Z,8.77
2022-12-28T18:45:59.902Z,8.79
2022-12-28T18:48:27.868Z,8.74
2022-12-28T18:51:02.789Z,8.75
2022-12-28T18:53:30.878Z,8.76
2022-12-28T18:56:11.907Z,8.74
2022-12-28T18:58:41.014Z,8.78
2022-12-28T19:01:32.920Z,8.77
2022-12-28T19:04:01.320Z,8.77
2022-12-28T19:06:29.477Z,8.72
2022-12-28T19:09:00.335Z,8.66
2022-12-28T19:11:28.127Z,8.68
2022-12-28T19:13:54.984Z,8.69
2022-12-28T19:16:27.128Z,8.64
2022-12-28T19:18:58.382Z,8.63
2022-12-28T19:21:31.908Z,8.57
2022-12-28T19:24:03.724Z,8.59
2022-12-28T19:26:32.845Z,8.53
2022-12-28T19:28:59.980Z,8.52
2022-12-28T19:31:27.951Z,8.47
2022-12-28T19:33:54.889Z,8.48
2022-12-28T19:36:21.839Z,8.50
2022-12-28T19:38:49.225Z,8.47
2022-12-28T19:41:16.673Z,8.52
2022-12-28T19:43:44.220Z,8.48
2022-12-28T19:46:16.959Z,8.50
2022-12-28T19:48:43.894Z,8.51
2022-12-28T19:51:11.735Z,8.52
2022-12-28T19:53:38.744Z,8.56
2022-12-28T19:56:09.086Z,8.53
2022-12-28T19:58:37.262Z,8.58
2022-12-28T20:01:12.033Z,8.61
2022-12-28T20:03:39.814Z,8.56
2022-12-28T20:06:09.943Z,8.64
2022-12-28T20:08:37.128Z,8.64
2022-12-28T20:11:05.325Z,8.67
2022-12-28T20:13:34.026Z,8.70
2022-12-28T20:16:01.208Z,8.71
2022-12-28T20:18:28.110Z,8.69
2022-12-28T20:21:20.136Z,8.72
2022-12-28T20:23:49.065Z,8.73
2022-12-28T20:26:17.766Z,8.79
2022-12-28T20:28:45.705Z,8.74
2022-12-28T20:31:14.708Z,8.67
2022-12-28T20:33:42.948Z,8.64
2022-12-28T20:36:16.939Z,8.64
2022-12-28T20:38:44.288Z,8.63
2022-12-28T20:41:50.447Z,8.65
2022-12-28T20:44:28.273Z,8.60
2022-12-28T20:46:57.193Z,8.64
2022-12-28T20:49:26.418Z,8.62
2022-12-28T20:51:53.865Z,8.65
2022-12-28T20:54:21.760Z,8.66
2022-12-28T20:56:54.212Z,8.63
2022-12-28T20:59:21.561Z,8.59
2022-12-28T21:01:52.144Z,8.56
2022-12-28T21:04:19.163Z,8.57
2022-12-28T21:06:46.163Z,8.52
2022-12-28T21:09:13.322Z,8.51
2022-12-28T21:11:40.139Z,8.58
2022-12-28T21:14:06.990Z,8.55
2022-12-28T21:16:33.900Z,8.53
2022-12-28T21:19:00.764Z,8.54
2022-12-28T21:21:27.583Z,8.47
2022-12-28T21:23:54.396Z,8.42
2022-12-28T21:26:22.269Z,8.36
2022-12-28T21:28:49.213Z,8.38
2022-12-28T21:31:16.369Z,8.34
2022-12-28T21:33:43.330Z,8.33
2022-12-28T21:36:17.356Z,8.36
2022-12-28T21:38:47.160Z,8.33
2022-12-28T21:41:40.835Z,8.33
2022-12-28T21:44:12.568Z,8.36
2022-12-28T21:46:39.917Z,8.33
2022-12-28T21:49:07.582Z,8.22
2022-12-28T21:51:35.571Z,8.24
2022-12-28T21:54:14.357Z,8.24
2022-12-28T21:56:43.119Z,8.27
2022-12-28T21:59:12.560Z,8.27
2022-12-28T22:02:00.049Z,8.32
2022-12-28T22:04:45.804Z,8.34
2022-12-28T22:07:16.299Z,8.35
2022-12-28T22:10:02.460Z,8.34
2022-12-28T22:12:35.059Z,8.30
2022-12-28T22:15:37.554Z,8.27
2022-12-28T22:18:08.359Z,8.29
2022-12-28T22:20:38.197Z,8.29
2022-12-28T22:23:07.187Z,8.29
2022-12-28T22:25:35.749Z,8.25
2022-12-28T22:28:04.295Z,8.19
2022-12-28T22:30:32.843Z,8.09
2022-12-28T22:32:59.900Z,8.12
2022-12-28T22:35:26.763Z,8.04
2022-12-28T22:37:53.947Z,7.99
2022-12-28T22:40:22.693Z,7.95
2022-12-28T22:42:51.020Z,7.88
2022-12-28T22:45:21.549Z,7.88
2022-12-28T22:47:49.710Z,7.93
2022-12-28T22:50:18.822Z,7.95
2022-12-28T22:52:47.082Z,8.00
2022-12-28T22:55:14.229Z,7.99
2022-12-28T22:57:41.074Z,8.03
2022-12-28T23:00:12.980Z,8.06
2022-12-28T23:02:40.362Z,8.08
2022-12-28T23:05:07.748Z,8.12
2022-12-28T23:07:36.431Z,8.07
2022-12-28T23:10:04.619Z,8.17
2022-12-28T23:12:31.519Z,8.09
2022-12-28T23:15:18.898Z,8.16
2022-12-28T23:17:49.059Z,8.15
2022-12-28T23:20:35.167Z,8.07
2022-12-28T23:23:02.159Z,8.11
2022-12-28T23:25:47.475Z,8.09
2022-12-28T23:28:15.704Z,7.97
2022-12-28T23:30:47.261Z,7.94
2022-12-28T23:33:15.739Z,7.95
2022-12-28T23:35:42.761Z,8.02
2022-12-28T23:38:10.179Z,8.04
2022-12-28T23:40:41.638Z,8.05
2022-12-28T23:43:08.667Z,8.05
2022-12-28T23:45:36.519Z,8.04
2022-12-28T23:48:05.855Z,8.09
2022-12-28T23:50:32.736Z,8.08
2022-12-28T23:52:59.619Z,8.07
2022-12-28T23:55:26.549Z,8.00
2022-12-28T23:57:53.323Z,8.00
